Time,TemperatureF,DewpointF,PressureIn,WindDirection,WindDirectionDegrees,WindSpeedMPH,WindSpeedGustMPH,Humidity,HourlyPrecipIn,Conditions,Clouds,dailyrainin,SoftwareType,DateUTC
2013-05-22 00:01:00,66.6,59.5,29.86,SSW,199,2.7,3.5,78,0.00,RA,,0.00,WeatherDisplay:10.37,2013-05-22 04:01:00,
2013-05-22 00:06:00,66.4,59.3,29.86,SE,132,1.6,3.5,78,0.00,RA,,0.00,WeatherDisplay:10.37,2013-05-22 04:06:00,
2013-05-22 00:11:00,66.4,59.7,29.86,WSW,245,3.4,3.5,79,0.00,FEW,,0.00,WeatherDisplay:10.37,2013-05-22 04:11:00,
2013-05-22 00:16:00,66.0,59.3,29.86,SSE,155,5.4,9.2,79,0.00,FEW,,0.00,WeatherDisplay:10.37,2013-05-22 04:16:00,
2013-05-22 00:21:00,66.0,59.7,29.85,SW,222,2.9,3.5,80,0.00,FEW,,0.00,WeatherDisplay:10.37,2013-05-22 04:21:00,
2013-05-22 00:26:00,65.8,59.5,29.86,SSW,199,5.4,5.8,80,0.00,FEW,,0.00,WeatherDisplay:10.37,2013-05-22 04:26:00,
2013-05-22 00:31:00,65.8,59.5,29.86,SE,132,8.7,15.0,80,0.00,FEW,,0.00,WeatherDisplay:10.37,2013-05-22 04:31:00,
2013-05-22 00:36:00,65.8,59.5,29.85,SE,132,4.7,5.8,80,0.00,FEW,,0.00,WeatherDisplay:10.37,2013-05-22 04:36:00,
2013-05-22 00:41:00,65.8,59.5,29.86,SW,222,6.0,6.0,80,0.00,FEW,,0.00,WeatherDisplay:10.37,2013-05-22 04:41:00,
2013-05-22 00:46:00,65.5,59.1,29.86,WSW,245,5.4,5.8,80,0.00,FEW,,0.00,WeatherDisplay:10.37,2013-05-22 04:46:00,
2013-05-22 00:51:00,65.7,59.3,29.86,SW,222,7.1,7.4,80,0.00,FEW,,0.00,WeatherDisplay:10.37,2013-05-22 04:51:00,
2013-05-22 00:56:00,65.7,59.3,29.86,NW,312,2.7,2.7,80,0.00,FEW,,0.00,WeatherDisplay:10.37,2013-05-22 04:56:00,
2013-05-22 01:01:00,65.7,59.3,29.87,SW,222,6.5,8.1,80,0.00,FEW,,0.00,WeatherDisplay:10.37,2013-05-22 05:01:00,
2013-05-22 01:06:00,65.8,59.5,29.86,SSE,155,6.5,10.7,80,0.00,FEW,,0.00,WeatherDisplay:10.37,2013-05-22 05:06:00,
2013-05-22 01:11:00,65.8,59.5,29.85,South,177,5.6,5.8,80,0.00,FEW,,0.00,WeatherDisplay:10.37,2013-05-22 05:11:00,
2013-05-22 01:16:00,65.8,60.2,29.84,SSE,155,3.0,3.8,82,0.00,FEW,,0.00,WeatherDisplay:10.37,2013-05-22 05:16:00,
2013-05-22 01:21:00,65.7,59.7,29.85,SW,222,7.4,7.4,81,0.00,FEW,,0.00,WeatherDisplay:10.37,2013-05-22 05:21:00,
2013-05-22 01:26:00,65.5,59.5,29.84,SSW,199,8.3,8.3,81,0.00,FEW,,0.00,WeatherDisplay:10.37,2013-05-22 05:26:00,
2013-05-22 01:31:00,65.5,59.5,29.84,West,267,1.3,2.3,81,0.00,FEW,,0.00,WeatherDisplay:10.37,2013-05-22 05:31:00,
2013-05-22 01:36:00,65.3,59.3,29.84,WNW,289,2.1,2.5,81,0.00,FEW,,0.00,WeatherDisplay:10.37,2013-05-22 05:36:00,
2013-05-22 01:41:00,65.1,59.1,29.83,South,177,4.2,4.6,81,0.00,FEW,,0.00,WeatherDisplay:10.37,2013-05-22 05:41:00,
2013-05-22 01:46:00,65.1,59.1,29.83,WSW,245,6.4,9.2,81,0.00,FEW,,0.00,WeatherDisplay:10.37,2013-05-22 05:46:00,
2013-05-22 01:51:00,64.9,59.0,29.83,South,177,4.9,5.8,81,0.00,FEW,,0.00,WeatherDisplay:10.37,2013-05-22 05:51:00,
2013-05-22 01:56:00,64.8,58.8,29.82,West,267,5.4,5.8,81,0.00,FEW,,0.00,WeatherDisplay:10.37,2013-05-22 05:56:00,
2013-05-22 02:01:00,64.8,58.8,29.82,SE,132,6.5,6.9,81,0.00,FEW,,0.00,WeatherDisplay:10.37,2013-05-22 06:01:00,
2013-05-22 02:06:00,64.6,58.6,29.82,South,177,5.1,5.1,81,0.00,FEW,,0.00,WeatherDisplay:10.37,2013-05-22 06:06:00,
2013-05-22 02:11:00,64.6,58.6,29.82,South,177,5.4,5.8,81,0.00,BKN,,0.00,WeatherDisplay:10.37,2013-05-22 06:11:00,
2013-05-22 02:16:00,64.6,58.6,29.81,South,177,4.0,5.8,81,0.00,BKN,,0.00,WeatherDisplay:10.37,2013-05-22 06:16:00,
2013-05-22 02:21:00,64.6,58.6,29.81,SSE,155,6.3,6.3,81,0.00,BKN,,0.00,WeatherDisplay:10.37,2013-05-22 06:21:00,
2013-05-22 02:26:00,64.6,58.6,29.81,SW,222,4.9,6.0,81,0.00,BKN,,0.00,WeatherDisplay:10.37,2013-05-22 06:26:00,
2013-05-22 02:31:00,64.2,58.6,29.82,SSE,155,2.7,3.5,82,0.00,BKN,,0.00,WeatherDisplay:10.37,2013-05-22 06:31:00,
2013-05-22 02:36:00,64.2,58.6,29.82,SE,132,3.8,3.8,82,0.00,BKN,,0.00,WeatherDisplay:10.37,2013-05-22 06:36:00,
2013-05-22 02:41:00,64.2,58.6,29.82,SSE,155,6.0,6.0,82,0.00,BKN,,0.00,WeatherDisplay:10.37,2013-05-22 06:41:00,
2013-05-22 02:46:00,64.2,58.6,29.82,South,177,3.9,5.8,82,0.00,BKN,,0.00,WeatherDisplay:10.37,2013-05-22 06:46:00,
2013-05-22 02:51:00,64.0,58.4,29.82,SE,132,3.1,3.5,82,0.00,BKN,,0.00,WeatherDisplay:10.37,2013-05-22 06:51:00,
2013-05-22 02:56:00,64.0,58.4,29.81,South,177,5.8,5.8,82,0.00,BKN,,0.00,WeatherDisplay:10.37,2013-05-22 06:56:00,
2013-05-22 03:01:00,64.0,58.8,29.81,SW,222,5.1,6.9,83,0.00,BKN,,0.00,WeatherDisplay:10.37,2013-05-22 07:01:00,
2013-05-22 03:06:00,64.0,58.4,29.82,SSW,199,3.4,6.9,82,0.00,BKN,,0.00,WeatherDisplay:10.37,2013-05-22 07:06:00,
2013-05-22 03:11:00,63.7,58.1,29.82,WSW,245,4.8,4.8,82,0.00,SCT,,0.00,WeatherDisplay:10.37,2013-05-22 07:11:00,
2013-05-22 03:16:00,63.7,58.1,29.82,SSW,199,3.6,4.7,82,0.00,SCT,,0.00,WeatherDisplay:10.37,2013-05-22 07:16:00,
2013-05-22 03:21:00,63.7,58.1,29.82,SW,222,0.0,5.8,82,0.00,SCT,,0.00,WeatherDisplay:10.37,2013-05-22 07:21:00,
2013-05-22 03:26:00,63.5,57.9,29.82,WSW,245,3.2,3.8,82,0.00,SCT,,0.00,WeatherDisplay:10.37,2013-05-22 07:26:00,
2013-05-22 03:31:00,63.5,57.9,29.82,West,267,2.6,5.8,82,0.00,SCT,,0.00,WeatherDisplay:10.37,2013-05-22 07:31:00,
2013-05-22 03:36:00,63.5,57.9,29.83,West,267,5.4,6.9,82,0.00,SCT,,0.00,WeatherDisplay:10.37,2013-05-22 07:36:00,
2013-05-22 03:41:00,63.3,57.7,29.82,SSW,199,7.4,7.4,82,0.00,SCT,,0.00,WeatherDisplay:10.37,2013-05-22 07:41:00,
2013-05-22 03:46:00,63.3,57.7,29.82,SE,132,2.2,3.5,82,0.00,SCT,,0.00,WeatherDisplay:10.37,2013-05-22 07:46:00,
2013-05-22 03:51:00,63.3,57.7,29.82,SSE,155,0.0,2.3,82,0.00,SCT,,0.00,WeatherDisplay:10.37,2013-05-22 07:51:00,
2013-05-22 03:56:00,63.1,57.6,29.82,SE,132,2.9,3.5,82,0.00,SCT,,0.00,WeatherDisplay:10.37,2013-05-22 07:56:00,
2013-05-22 04:01:00,63.1,57.9,29.82,SSW,199,0.0,0.0,83,0.00,SCT,,0.00,WeatherDisplay:10.37,2013-05-22 08:01:00,
2013-05-22 04:06:00,63.1,57.9,29.81,SSW,199,5.4,5.8,83,0.00,SCT,,0.00,WeatherDisplay:10.37,2013-05-22 08:06:00,
2013-05-22 04:11:00,63.1,57.9,29.81,West,267,5.3,6.9,83,0.00,BKN,,0.00,WeatherDisplay:10.37,2013-05-22 08:11:00,
2013-05-22 04:16:00,62.8,57.5,29.81,South,177,4.2,4.6,83,0.00,BKN,,0.00,WeatherDisplay:10.37,2013-05-22 08:16:00,
2013-05-22 04:21:00,62.8,57.9,29.81,SSW,199,4.0,4.0,84,0.00,BKN,,0.00,WeatherDisplay:10.37,2013-05-22 08:21:00,
2013-05-22 04:26:00,62.6,57.7,29.81,WSW,245,0.4,2.2,84,0.00,BKN,,0.00,WeatherDisplay:10.37,2013-05-22 08:26:00,
2013-05-22 04:31:00,62.4,57.5,29.82,SSE,155,8.4,10.7,84,0.00,BKN,,0.00,WeatherDisplay:10.37,2013-05-22 08:31:00,
2013-05-22 04:36:00,62.4,57.5,29.82,SW,222,0.0,2.3,84,0.00,BKN,,0.00,WeatherDisplay:10.37,2013-05-22 08:36:00,
2013-05-22 04:41:00,62.4,57.8,29.81,SE,132,3.2,3.6,85,0.00,BKN,,0.00,WeatherDisplay:10.37,2013-05-22 08:41:00,
2013-05-22 04:46:00,62.4,57.8,29.82,South,177,4.3,5.8,85,0.00,BKN,,0.00,WeatherDisplay:10.37,2013-05-22 08:46:00,
2013-05-22 04:51:00,62.4,57.8,29.82,SSE,155,3.8,3.8,85,0.00,BKN,,0.00,WeatherDisplay:10.37,2013-05-22 08:51:00,
2013-05-22 04:56:00,62.4,57.8,29.82,ENE,65,2.2,2.7,85,0.00,BKN,,0.00,WeatherDisplay:10.37,2013-05-22 08:56:00,
2013-05-22 05:01:00,62.2,57.7,29.81,South,177,2.5,6.9,85,0.00,BKN,,0.00,WeatherDisplay:10.37,2013-05-22 09:01:00,
2013-05-22 05:06:00,62.2,57.7,29.81,SSW,199,5.4,5.8,85,0.00,BKN,,0.00,WeatherDisplay:10.37,2013-05-22 09:06:00,
2013-05-22 05:11:00,62.2,57.7,29.81,South,177,3.8,3.8,85,0.00,SCT,,0.00,WeatherDisplay:10.37,2013-05-22 09:11:00,
2013-05-22 05:16:00,62.1,57.2,29.81,South,177,3.6,3.8,84,0.00,SCT,,0.00,WeatherDisplay:10.37,2013-05-22 09:16:00,
2013-05-22 05:21:00,62.1,57.2,29.81,SW,222,2.5,3.5,84,0.00,SCT,,0.00,WeatherDisplay:10.37,2013-05-22 09:21:00,
2013-05-22 05:26:00,61.9,57.0,29.81,South,177,3.7,3.7,84,0.00,SCT,,0.00,WeatherDisplay:10.37,2013-05-22 09:26:00,
2013-05-22 05:31:00,61.9,57.0,29.81,SE,132,3.9,5.8,84,0.00,SCT,,0.00,WeatherDisplay:10.37,2013-05-22 09:31:00,
2013-05-22 05:36:00,61.9,57.3,29.81,South,177,1.3,1.3,85,0.00,SCT,,0.00,WeatherDisplay:10.37,2013-05-22 09:36:00,
2013-05-22 05:41:00,61.9,57.3,29.81,SSE,155,2.9,3.5,85,0.00,SCT,,0.00,WeatherDisplay:10.37,2013-05-22 09:41:00,
2013-05-22 05:46:00,61.9,57.3,29.81,SSE,155,1.0,2.3,85,0.00,SCT,,0.00,WeatherDisplay:10.37,2013-05-22 09:46:00,
2013-05-22 05:51:00,61.9,57.3,29.81,SSE,155,2.5,3.5,85,0.00,SCT,,0.00,WeatherDisplay:10.37,2013-05-22 09:51:00,
2013-05-22 05:56:00,61.9,57.3,29.81,WSW,245,6.3,6.3,85,0.00,SCT,,0.00,WeatherDisplay:10.37,2013-05-22 09:56:00,
2013-05-22 06:01:00,61.9,57.3,29.81,South,177,3.1,3.5,85,0.00,SCT,,0.00,WeatherDisplay:10.37,2013-05-22 10:01:00,
2013-05-22 06:06:00,61.9,57.3,29.81,SSW,199,4.9,4.9,85,0.00,SCT,,0.00,WeatherDisplay:10.37,2013-05-22 10:06:00,
2013-05-22 06:11:00,61.9,57.3,29.81,SSE,155,1.2,6.0,85,0.00,FEW,,0.00,WeatherDisplay:10.37,2013-05-22 10:11:00,
2013-05-22 06:16:00,61.9,57.3,29.81,SSW,199,2.9,4.6,85,0.00,FEW,,0.00,WeatherDisplay:10.37,2013-05-22 10:16:00,
2013-05-22 06:21:00,61.9,57.3,29.81,SE,132,3.8,3.8,85,0.00,FEW,,0.00,WeatherDisplay:10.37,2013-05-22 10:21:00,
2013-05-22 06:26:00,61.9,57.3,29.81,South,177,0.0,0.0,85,0.00,FEW,,0.00,WeatherDisplay:10.37,2013-05-22 10:26:00,
2013-05-22 06:31:00,62.1,57.5,29.80,SSW,199,2.3,2.5,85,0.00,FEW,,0.00,WeatherDisplay:10.37,2013-05-22 10:31:00,
2013-05-22 06:36:00,62.1,57.5,29.81,South,177,4.9,4.9,85,0.00,FEW,,0.00,WeatherDisplay:10.37,2013-05-22 10:36:00,
2013-05-22 06:41:00,62.2,57.7,29.81,SW,222,4.2,4.6,85,0.00,FEW,,0.00,WeatherDisplay:10.37,2013-05-22 10:41:00,
2013-05-22 06:46:00,62.2,57.7,29.80,SW,222,0.8,3.5,85,0.00,FEW,,0.00,WeatherDisplay:10.37,2013-05-22 10:46:00,
2013-05-22 06:51:00,62.2,57.7,29.80,WSW,245,2.2,5.8,85,0.00,FEW,,0.00,WeatherDisplay:10.37,2013-05-22 10:51:00,
2013-05-22 06:56:00,62.4,57.8,29.81,WSW,245,4.4,4.6,85,0.00,FEW,,0.00,WeatherDisplay:10.37,2013-05-22 10:56:00,
2013-05-22 07:01:00,62.4,57.8,29.81,WSW,245,2.9,3.5,85,0.00,FEW,,0.00,WeatherDisplay:10.37,2013-05-22 11:01:00,
2013-05-22 07:06:00,62.6,57.7,29.82,SSE,155,3.8,3.8,84,0.00,FEW,,0.00,WeatherDisplay:10.37,2013-05-22 11:06:00,
2013-05-22 07:11:00,62.8,57.9,29.82,SW,222,2.9,4.5,84,0.00,BKN,,0.00,WeatherDisplay:10.37,2013-05-22 11:11:00,
2013-05-22 07:16:00,63.0,58.0,29.82,West,267,2.4,2.4,84,0.00,BKN,,0.00,WeatherDisplay:10.37,2013-05-22 11:16:00,
2013-05-22 07:21:00,63.1,58.2,29.82,SSE,155,2.0,2.3,84,0.00,BKN,,0.00,WeatherDisplay:10.37,2013-05-22 11:21:00,
2013-05-22 07:26:00,63.3,58.1,29.83,WSW,245,5.4,5.8,83,0.00,BKN,,0.00,WeatherDisplay:10.37,2013-05-22 11:26:00,
2013-05-22 07:31:00,63.7,58.4,29.84,SSW,199,4.3,8.1,83,0.00,BKN,,0.00,WeatherDisplay:10.37,2013-05-22 11:31:00,
2013-05-22 07:36:00,63.9,58.6,29.83,SSW,199,3.4,5.8,83,0.00,BKN,,0.00,WeatherDisplay:10.37,2013-05-22 11:36:00,
2013-05-22 07:41:00,64.2,58.9,29.84,SW,222,0.5,3.1,83,0.00,BKN,,0.00,WeatherDisplay:10.37,2013-05-22 11:41:00,
2013-05-22 07:46:00,64.6,59.3,29.84,SW,222,0.5,3.5,83,0.00,BKN,,0.00,WeatherDisplay:10.37,2013-05-22 11:46:00,
2013-05-22 07:51:00,64.9,59.3,29.84,SW,222,5.4,5.8,82,0.00,BKN,,0.00,WeatherDisplay:10.37,2013-05-22 11:51:00,
2013-05-22 07:56:00,65.1,59.5,29.84,West,267,5.0,5.8,82,0.00,BKN,,0.00,WeatherDisplay:10.37,2013-05-22 11:56:00,
2013-05-22 08:01:00,66.0,60.4,29.84,SW,222,2.4,3.8,82,0.00,BKN,,0.00,WeatherDisplay:10.37,2013-05-22 12:01:00,
2013-05-22 08:06:00,66.4,60.4,29.84,SW,222,0.9,1.1,81,0.00,BKN,,0.00,WeatherDisplay:10.37,2013-05-22 12:06:00,
2013-05-22 08:11:00,66.7,60.4,29.84,WSW,245,0.0,4.9,80,0.00,BKN,,0.00,WeatherDisplay:10.37,2013-05-22 12:11:00,
2013-05-22 08:16:00,66.9,60.5,29.84,SSW,199,5.0,5.8,80,0.00,BKN,,0.00,WeatherDisplay:10.37,2013-05-22 12:16:00,
2013-05-22 08:21:00,67.3,60.9,29.84,SSW,199,2.9,3.5,80,0.00,BKN,,0.00,WeatherDisplay:10.37,2013-05-22 12:21:00,
2013-05-22 08:26:00,67.8,61.1,29.84,South,177,1.6,1.6,79,0.00,BKN,,0.00,WeatherDisplay:10.37,2013-05-22 12:26:00,
2013-05-22 08:31:00,68.2,61.4,29.83,SW,222,1.4,3.5,79,0.00,BKN,,0.00,WeatherDisplay:10.37,2013-05-22 12:31:00,
2013-05-22 08:36:00,68.4,61.2,29.84,SE,132,4.5,4.6,78,0.00,BKN,,0.00,WeatherDisplay:10.37,2013-05-22 12:36:00,
2013-05-22 08:41:00,68.9,61.4,29.84,WSW,245,3.1,3.5,77,0.00,BKN,,0.00,WeatherDisplay:10.37,2013-05-22 12:41:00,
2013-05-22 08:46:00,69.1,61.6,29.84,SSW,199,4.8,5.1,77,0.00,BKN,,0.00,WeatherDisplay:10.37,2013-05-22 12:46:00,
2013-05-22 08:51:00,69.6,62.1,29.83,SSW,199,4.7,4.7,77,0.00,BKN,,0.00,WeatherDisplay:10.37,2013-05-22 12:51:00,
2013-05-22 08:56:00,70.0,62.4,29.83,SW,222,2.7,3.8,77,0.00,BKN,,0.00,WeatherDisplay:10.37,2013-05-22 12:56:00,
2013-05-22 09:01:00,70.0,62.1,29.83,SSW,199,4.8,6.0,76,0.00,BKN,,0.00,WeatherDisplay:10.37,2013-05-22 13:01:00,
2013-05-22 09:06:00,70.2,61.9,29.83,SW,222,0.0,2.3,75,0.00,BKN,,0.00,WeatherDisplay:10.37,2013-05-22 13:06:00,
2013-05-22 09:11:00,70.3,62.0,29.83,South,177,4.1,5.8,75,0.00,BKN,,0.00,WeatherDisplay:10.37,2013-05-22 13:11:00,
2013-05-22 09:16:00,70.9,62.6,29.83,SSW,199,1.3,1.3,75,0.00,BKN,,0.00,WeatherDisplay:10.37,2013-05-22 13:16:00,
2013-05-22 09:21:00,71.2,62.9,29.83,SE,132,0.0,3.5,75,0.00,BKN,,0.00,WeatherDisplay:10.37,2013-05-22 13:21:00,
2013-05-22 09:26:00,72.1,63.8,29.83,SSE,155,2.6,3.6,75,0.00,BKN,,0.00,WeatherDisplay:10.37,2013-05-22 13:26:00,
2013-05-22 09:31:00,73.0,63.9,29.82,SE,132,3.4,9.2,73,0.00,BKN,,0.00,WeatherDisplay:10.37,2013-05-22 13:31:00,
2013-05-22 09:36:00,73.8,64.2,29.83,West,267,2.9,4.6,72,0.00,BKN,,0.00,WeatherDisplay:10.37,2013-05-22 13:36:00,
2013-05-22 09:41:00,75.0,65.4,29.83,SSW,199,4.2,4.6,72,0.00,BKN,,0.00,WeatherDisplay:10.37,2013-05-22 13:41:00,
2013-05-22 09:46:00,76.1,66.0,29.83,SSW,199,5.4,7.4,71,0.00,BKN,,0.00,WeatherDisplay:10.37,2013-05-22 13:46:00,
2013-05-22 09:51:00,76.8,65.9,29.82,West,267,5.8,5.8,69,0.00,BKN,,0.00,WeatherDisplay:10.37,2013-05-22 13:51:00,
2013-05-22 09:56:00,77.4,65.5,29.83,South,177,2.0,2.3,67,0.00,BKN,,0.00,WeatherDisplay:10.37,2013-05-22 13:56:00,
2013-05-22 10:01:00,78.1,65.8,29.83,SSE,155,2.0,5.8,66,0.00,BKN,,0.00,WeatherDisplay:10.37,2013-05-22 14:01:00,
2013-05-22 10:06:00,78.6,65.9,29.83,West,267,7.9,9.2,65,0.00,BKN,,0.00,WeatherDisplay:10.37,2013-05-22 14:06:00,
2013-05-22 10:11:00,79.3,66.1,29.84,ESE,109,5.2,6.3,64,0.00,BKN,,0.00,WeatherDisplay:10.37,2013-05-22 14:11:00,
2013-05-22 10:16:00,79.9,66.2,29.84,WSW,245,2.9,3.5,63,0.00,BKN,,0.00,WeatherDisplay:10.37,2013-05-22 14:16:00,
2013-05-22 10:21:00,80.4,66.2,29.84,SSE,155,9.2,9.2,62,0.00,BKN,,0.00,WeatherDisplay:10.37,2013-05-22 14:21:00,
2013-05-22 10:26:00,80.6,65.9,29.85,West,267,7.1,9.2,61,0.00,BKN,,0.00,WeatherDisplay:10.37,2013-05-22 14:26:00,
2013-05-22 10:31:00,81.0,65.8,29.84,SSE,155,13.2,13.2,60,0.00,BKN,,0.00,WeatherDisplay:10.37,2013-05-22 14:31:00,
2013-05-22 10:36:00,80.6,64.9,29.85,WSW,245,4.9,4.9,59,0.00,BKN,,0.00,WeatherDisplay:10.37,2013-05-22 14:36:00,
2013-05-22 10:41:00,80.2,64.6,29.84,WSW,245,6.6,10.9,59,0.00,BKN,,0.00,WeatherDisplay:10.37,2013-05-22 14:41:00,
2013-05-22 10:46:00,79.9,64.8,29.84,SSE,155,0.8,4.6,60,0.00,BKN,,0.00,WeatherDisplay:10.37,2013-05-22 14:46:00,
2013-05-22 10:51:00,79.9,64.8,29.85,SSW,199,4.0,9.2,60,0.00,BKN,,0.00,WeatherDisplay:10.37,2013-05-22 14:51:00,
2013-05-22 10:56:00,80.1,64.0,29.85,NW,312,10.7,10.7,58,0.00,BKN,,0.00,WeatherDisplay:10.37,2013-05-22 14:56:00,
2013-05-22 11:01:00,80.2,64.6,29.85,West,267,2.5,2.5,59,0.00,BKN,,0.00,WeatherDisplay:10.37,2013-05-22 15:01:00,
2013-05-22 11:06:00,80.1,64.4,29.85,South,177,3.2,4.6,59,0.00,BKN,,0.00,WeatherDisplay:10.37,2013-05-22 15:06:00,
2013-05-22 11:11:00,80.4,64.3,29.85,WSW,245,8.2,11.6,58,0.00,BKN,,0.00,WeatherDisplay:10.37,2013-05-22 15:11:00,
2013-05-22 11:16:00,80.6,64.0,29.85,South,177,8.2,8.5,57,0.00,BKN,,0.00,WeatherDisplay:10.37,2013-05-22 15:16:00,
2013-05-22 11:21:00,80.6,64.5,29.84,SSE,155,3.4,3.5,58,0.00,BKN,,0.00,WeatherDisplay:10.37,2013-05-22 15:21:00,
2013-05-22 11:26:00,81.7,65.5,29.84,South,177,6.1,11.2,58,0.00,BKN,,0.00,WeatherDisplay:10.37,2013-05-22 15:26:00,
2013-05-22 11:31:00,81.9,65.1,29.84,WNW,289,4.5,4.6,57,0.00,BKN,,0.00,WeatherDisplay:10.37,2013-05-22 15:31:00,
2013-05-22 11:36:00,82.0,65.8,29.84,South,177,4.5,4.6,58,0.00,BKN,,0.00,WeatherDisplay:10.37,2013-05-22 15:36:00,
2013-05-22 11:41:00,82.8,65.5,29.84,WSW,245,7.3,9.2,56,0.00,BKN,,0.00,WeatherDisplay:10.37,2013-05-22 15:41:00,
2013-05-22 11:46:00,83.1,66.3,29.84,WSW,245,10.5,10.5,57,0.00,BKN,,0.00,WeatherDisplay:10.37,2013-05-22 15:46:00,
2013-05-22 11:51:00,83.8,66.5,29.83,WSW,245,7.4,7.4,56,0.00,BKN,,0.00,WeatherDisplay:10.37,2013-05-22 15:51:00,
2013-05-22 11:56:00,83.8,65.4,29.84,South,177,8.5,9.2,54,0.00,BKN,,0.00,WeatherDisplay:10.37,2013-05-22 15:56:00,
2013-05-22 12:01:00,83.8,65.9,29.84,SSE,155,4.2,4.6,55,0.00,BKN,,0.00,WeatherDisplay:10.37,2013-05-22 16:01:00,
2013-05-22 12:06:00,84.0,66.6,29.84,West,267,3.4,5.8,56,0.00,BKN,,0.00,WeatherDisplay:10.37,2013-05-22 16:06:00,
2013-05-22 12:11:00,84.9,66.9,29.84,SW,222,5.0,5.1,55,0.00,BKN,,0.00,WeatherDisplay:10.37,2013-05-22 16:11:00,
2013-05-22 12:16:00,85.8,66.2,29.84,WSW,245,4.9,9.2,52,0.00,BKN,,0.00,WeatherDisplay:10.37,2013-05-22 16:16:00,
2013-05-22 12:21:00,85.8,66.2,29.84,WSW,245,9.8,17.3,52,0.00,BKN,,0.00,WeatherDisplay:10.37,2013-05-22 16:21:00,
2013-05-22 12:26:00,86.4,66.7,29.84,WSW,245,14.4,17.3,52,0.00,BKN,,0.00,WeatherDisplay:10.37,2013-05-22 16:26:00,
2013-05-22 12:31:00,86.9,66.6,29.84,West,267,4.5,10.4,51,0.00,BKN,,0.00,WeatherDisplay:10.37,2013-05-22 16:31:00,
2013-05-22 12:36:00,86.4,66.1,29.84,SW,222,3.8,9.2,51,0.00,BKN,,0.00,WeatherDisplay:10.37,2013-05-22 16:36:00,
2013-05-22 12:41:00,86.7,65.9,29.84,WSW,245,5.5,8.5,50,0.00,BKN,,0.00,WeatherDisplay:10.37,2013-05-22 16:41:00,
2013-05-22 12:46:00,86.5,65.7,29.84,SW,222,8.5,8.5,50,0.00,BKN,,0.00,WeatherDisplay:10.37,2013-05-22 16:46:00,
2013-05-22 12:51:00,85.8,64.5,29.84,West,267,15.0,15.0,49,0.00,BKN,,0.00,WeatherDisplay:10.37,2013-05-22 16:51:00,
2013-05-22 12:56:00,84.7,64.6,29.84,SW,222,3.5,4.5,51,0.00,BKN,,0.00,WeatherDisplay:10.37,2013-05-22 16:56:00,
2013-05-22 13:01:00,84.0,64.5,29.84,WSW,245,3.8,11.5,52,0.00,BKN,,0.00,WeatherDisplay:10.37,2013-05-22 17:01:00,
2013-05-22 13:06:00,83.7,64.7,29.84,SSW,199,5.1,5.1,53,0.00,BKN,,0.00,WeatherDisplay:10.37,2013-05-22 17:06:00,
2013-05-22 13:11:00,83.7,64.7,29.84,South,177,9.1,10.3,53,0.00,OVC,,0.00,WeatherDisplay:10.37,2013-05-22 17:11:00,
2013-05-22 13:16:00,84.0,65.6,29.83,WNW,289,6.9,6.9,54,0.00,OVC,,0.00,WeatherDisplay:10.37,2013-05-22 17:16:00,
2013-05-22 13:21:00,84.6,65.5,29.83,SSW,199,5.6,5.8,53,0.00,OVC,,0.00,WeatherDisplay:10.37,2013-05-22 17:21:00,
2013-05-22 13:26:00,84.9,65.3,29.83,South,177,9.2,9.2,52,0.00,OVC,,0.00,WeatherDisplay:10.37,2013-05-22 17:26:00,
2013-05-22 13:31:00,84.7,65.2,29.83,South,177,7.4,10.4,52,0.00,OVC,,0.00,WeatherDisplay:10.37,2013-05-22 17:31:00,
2013-05-22 13:36:00,83.7,64.7,29.83,SSW,199,6.0,6.0,53,0.00,OVC,,0.00,WeatherDisplay:10.37,2013-05-22 17:36:00,
2013-05-22 13:41:00,82.6,64.3,29.82,SSW,199,1.9,4.2,54,0.00,OVC,,0.00,WeatherDisplay:10.37,2013-05-22 17:41:00,
2013-05-22 13:46:00,82.2,64.4,29.83,East,87,5.8,5.8,55,0.00,OVC,,0.00,WeatherDisplay:10.37,2013-05-22 17:46:00,
2013-05-22 13:51:00,82.4,65.1,29.83,SSW,199,0.0,0.0,56,0.00,OVC,,0.00,WeatherDisplay:10.37,2013-05-22 17:51:00,
2013-05-22 13:56:00,82.6,64.8,29.83,SW,222,5.5,8.7,55,0.00,OVC,,0.00,WeatherDisplay:10.37,2013-05-22 17:56:00,
2013-05-22 14:01:00,82.2,64.4,29.82,South,177,5.9,6.9,55,0.00,OVC,,0.00,WeatherDisplay:10.37,2013-05-22 18:01:00,
2013-05-22 14:06:00,82.0,64.8,29.83,SSE,155,6.9,6.9,56,0.00,OVC,,0.00,WeatherDisplay:10.37,2013-05-22 18:06:00,
2013-05-22 14:11:00,82.0,64.8,29.82,SW,222,5.9,6.0,56,0.00,BKN,,0.00,WeatherDisplay:10.37,2013-05-22 18:11:00,
2013-05-22 14:16:00,82.2,65.5,29.82,South,177,9.2,9.2,57,0.00,BKN,,0.00,WeatherDisplay:10.37,2013-05-22 18:16:00,
2013-05-22 14:21:00,82.2,65.0,29.82,SSW,199,10.1,12.7,56,0.00,BKN,,0.00,WeatherDisplay:10.37,2013-05-22 18:21:00,
2013-05-22 14:26:00,82.2,65.0,29.82,West,267,11.3,13.8,56,0.00,BKN,,0.00,WeatherDisplay:10.37,2013-05-22 18:26:00,
2013-05-22 14:31:00,82.6,65.8,29.82,SSE,155,7.0,7.0,57,0.00,BKN,,0.00,WeatherDisplay:10.37,2013-05-22 18:31:00,
2013-05-22 14:36:00,82.9,65.6,29.82,SSE,155,5.4,5.8,56,0.00,BKN,,0.00,WeatherDisplay:10.37,2013-05-22 18:36:00,
2013-05-22 14:41:00,82.6,65.3,29.82,SE,132,6.0,6.9,56,0.00,BKN,,0.00,WeatherDisplay:10.37,2013-05-22 18:41:00,
2013-05-22 14:46:00,82.0,64.8,29.82,SE,132,5.6,6.9,56,0.00,BKN,,0.00,WeatherDisplay:10.37,2013-05-22 18:46:00,
2013-05-22 14:51:00,81.9,64.6,29.82,SSW,199,6.7,6.9,56,0.00,BKN,,0.00,WeatherDisplay:10.37,2013-05-22 18:51:00,
2013-05-22 14:56:00,81.9,65.1,29.82,South,177,4.2,4.5,57,0.00,BKN,,0.00,WeatherDisplay:10.37,2013-05-22 18:56:00,
2013-05-22 15:01:00,82.0,65.3,29.82,SSW,199,6.3,9.2,57,0.00,BKN,,0.00,WeatherDisplay:10.37,2013-05-22 19:01:00,
2013-05-22 15:06:00,82.0,64.8,29.82,West,267,8.2,8.2,56,0.00,BKN,,0.00,WeatherDisplay:10.37,2013-05-22 19:06:00,
2013-05-22 15:11:00,81.1,64.5,29.82,SE,132,12.3,12.7,57,0.00,-RA,,0.00,WeatherDisplay:10.37,2013-05-22 19:11:00,
2013-05-22 15:16:00,80.8,64.1,29.82,South,177,6.4,6.9,57,0.00,-RA,,0.00,WeatherDisplay:10.37,2013-05-22 19:16:00,
2013-05-22 15:21:00,80.4,64.3,29.81,West,267,4.2,4.7,58,0.00,-RA,,0.00,WeatherDisplay:10.37,2013-05-22 19:21:00,
2013-05-22 15:26:00,80.4,64.3,29.81,SSE,155,5.4,5.8,58,0.00,-RA,,0.00,WeatherDisplay:10.37,2013-05-22 19:26:00,
2013-05-22 15:31:00,80.4,64.3,29.81,SW,222,4.5,10.4,58,0.00,-RA,,0.00,WeatherDisplay:10.37,2013-05-22 19:31:00,
2013-05-22 15:36:00,80.4,64.3,29.80,South,177,9.4,9.4,58,0.00,-RA,,0.00,WeatherDisplay:10.37,2013-05-22 19:36:00,
2013-05-22 15:41:00,79.5,63.9,29.80,South,177,9.1,13.8,59,0.00,-RA,,0.00,WeatherDisplay:10.37,2013-05-22 19:41:00,
2013-05-22 15:46:00,79.5,63.9,29.80,SW,222,2.5,8.1,59,0.00,-RA,,0.00,WeatherDisplay:10.37,2013-05-22 19:46:00,
2013-05-22 15:51:00,79.5,63.9,29.80,WSW,245,12.3,12.7,59,0.00,-RA,,0.00,WeatherDisplay:10.37,2013-05-22 19:51:00,
2013-05-22 15:56:00,79.2,63.6,29.80,WSW,245,11.6,11.6,59,0.00,-RA,,0.00,WeatherDisplay:10.37,2013-05-22 19:56:00,
2013-05-22 16:01:00,78.4,62.9,29.79,South,177,11.8,11.8,59,0.00,-RA,,0.00,WeatherDisplay:10.37,2013-05-22 20:01:00,
2013-05-22 16:06:00,78.1,63.1,29.79,SSW,199,0.7,6.7,60,0.00,-RA,,0.00,WeatherDisplay:10.37,2013-05-22 20:06:00,
2013-05-22 16:11:00,78.1,63.5,29.79,SSW,199,6.5,8.1,61,0.00,-RA,,0.00,WeatherDisplay:10.37,2013-05-22 20:11:00,
2013-05-22 16:16:00,78.1,63.5,29.78,WSW,245,4.7,4.7,61,0.00,-RA,,0.00,WeatherDisplay:10.37,2013-05-22 20:16:00,
2013-05-22 16:21:00,78.1,64.5,29.79,South,177,3.8,3.8,63,0.00,-RA,,0.00,WeatherDisplay:10.37,2013-05-22 20:21:00,
2013-05-22 16:26:00,76.1,63.0,29.79,WSW,245,8.9,11.5,64,0.12,-RA,,0.22,WeatherDisplay:10.37,2013-05-22 20:26:00,
2013-05-22 16:31:00,74.5,62.4,29.79,WSW,245,4.7,4.7,66,0.26,-RA,,0.26,WeatherDisplay:10.37,2013-05-22 20:31:00,
2013-05-22 16:36:00,73.9,63.1,29.79,WSW,245,0.0,0.0,69,0.26,-RA,,0.26,WeatherDisplay:10.37,2013-05-22 20:36:00,
2013-05-22 16:41:00,73.4,63.0,29.79,SW,222,0.0,0.0,70,0.28,-RA,,0.28,WeatherDisplay:10.37,2013-05-22 20:41:00,
2013-05-22 16:46:00,73.4,63.4,29.79,WSW,245,0.0,4.6,71,0.28,-RA,,0.28,WeatherDisplay:10.37,2013-05-22 20:46:00,
2013-05-22 16:51:00,73.2,63.6,29.78,SW,222,0.0,0.0,72,0.28,-RA,,0.28,WeatherDisplay:10.37,2013-05-22 20:51:00,
2013-05-22 16:56:00,73.2,64.0,29.79,West,267,0.0,0.0,73,0.28,-RA,,0.28,WeatherDisplay:10.37,2013-05-22 20:56:00,
2013-05-22 17:01:00,73.2,64.4,29.78,WSW,245,0.0,0.0,74,0.28,-RA,,0.28,WeatherDisplay:10.37,2013-05-22 21:01:00,
2013-05-22 17:06:00,73.4,64.6,29.78,WSW,245,0.0,3.8,74,0.28,-RA,,0.28,WeatherDisplay:10.37,2013-05-22 21:06:00,
2013-05-22 17:12:00,73.2,64.4,29.78,SW,222,1.9,3.5,74,0.28,BKN,,0.28,WeatherDisplay:10.37,2013-05-22 21:12:00,
2013-05-22 17:17:00,73.2,64.4,29.78,West,267,0.0,2.3,74,0.28,BKN,,0.28,WeatherDisplay:10.37,2013-05-22 21:17:00,
2013-05-22 17:22:00,73.2,64.4,29.78,West,267,0.6,3.5,74,0.28,BKN,,0.28,WeatherDisplay:10.37,2013-05-22 21:22:00,
2013-05-22 17:27:00,73.0,64.3,29.78,West,267,0.0,0.0,74,0.06,BKN,,0.28,WeatherDisplay:10.37,2013-05-22 21:27:00,
2013-05-22 17:32:00,73.0,64.3,29.78,West,267,8.7,9.2,74,0.02,BKN,,0.28,WeatherDisplay:10.37,2013-05-22 21:32:00,
2013-05-22 17:37:00,73.0,64.3,29.78,WSW,245,2.3,4.6,74,0.02,BKN,,0.28,WeatherDisplay:10.37,2013-05-22 21:37:00,
2013-05-22 17:42:00,73.2,64.4,29.79,WSW,245,4.4,5.8,74,0.00,BKN,,0.28,WeatherDisplay:10.37,2013-05-22 21:42:00,
2013-05-22 17:47:00,73.4,64.6,29.79,SW,222,8.9,9.2,74,0.00,BKN,,0.28,WeatherDisplay:10.37,2013-05-22 21:47:00,
2013-05-22 17:52:00,73.2,63.6,29.79,West,267,7.7,8.1,72,0.00,BKN,,0.28,WeatherDisplay:10.37,2013-05-22 21:52:00,
2013-05-22 17:57:00,72.9,62.9,29.79,SSW,199,7.9,16.1,71,0.00,BKN,,0.28,WeatherDisplay:10.37,2013-05-22 21:57:00,
2013-05-22 18:02:00,72.3,62.8,29.80,SW,222,6.3,8.1,72,0.00,BKN,,0.28,WeatherDisplay:10.37,2013-05-22 22:02:00,
2013-05-22 18:07:00,71.8,62.7,29.80,West,267,4.3,5.8,73,0.00,BKN,,0.28,WeatherDisplay:10.37,2013-05-22 22:07:00,
2013-05-22 18:12:00,71.4,62.3,29.79,WSW,245,3.9,5.8,73,0.00,BKN,,0.28,WeatherDisplay:10.37,2013-05-22 22:12:00,
2013-05-22 18:17:00,71.2,62.5,29.79,West,267,5.1,5.1,74,0.00,BKN,,0.28,WeatherDisplay:10.37,2013-05-22 22:17:00,
2013-05-22 18:22:00,71.2,62.5,29.79,WSW,245,5.5,6.9,74,0.00,BKN,,0.28,WeatherDisplay:10.37,2013-05-22 22:22:00,
2013-05-22 18:27:00,72.0,63.2,29.78,WSW,245,5.1,5.1,74,0.00,BKN,,0.28,WeatherDisplay:10.37,2013-05-22 22:27:00,
2013-05-22 18:32:00,72.3,63.2,29.79,SW,222,0.5,10.4,73,0.00,BKN,,0.28,WeatherDisplay:10.37,2013-05-22 22:32:00,
2013-05-22 18:37:00,72.3,63.2,29.79,West,267,8.3,10.4,73,0.00,BKN,,0.28,WeatherDisplay:10.37,2013-05-22 22:37:00,
2013-05-22 18:42:00,72.3,62.8,29.79,WSW,245,4.2,4.6,72,0.00,BKN,,0.28,WeatherDisplay:10.37,2013-05-22 22:42:00,
2013-05-22 18:47:00,72.3,62.8,29.79,West,267,3.8,3.8,72,0.00,BKN,,0.28,WeatherDisplay:10.37,2013-05-22 22:47:00,
2013-05-22 18:52:00,72.1,62.6,29.79,West,267,1.8,2.3,72,0.00,BKN,,0.28,WeatherDisplay:10.37,2013-05-22 22:52:00,
2013-05-22 18:57:00,71.8,62.3,29.79,WSW,245,0.0,0.0,72,0.00,BKN,,0.28,WeatherDisplay:10.37,2013-05-22 22:57:00,
2013-05-22 19:02:00,72.0,62.8,29.79,West,267,0.0,4.6,73,0.00,BKN,,0.28,WeatherDisplay:10.37,2013-05-22 23:02:00,
2013-05-22 19:07:00,72.3,63.2,29.79,WSW,245,0.0,4.6,73,0.00,BKN,,0.28,WeatherDisplay:10.37,2013-05-22 23:07:00,
2013-05-22 19:12:00,72.7,63.5,29.79,West,267,0.0,0.0,73,0.00,FEW,,0.28,WeatherDisplay:10.37,2013-05-22 23:12:00,
2013-05-22 19:17:00,73.0,63.5,29.80,WSW,245,5.5,5.8,72,0.00,FEW,,0.28,WeatherDisplay:10.37,2013-05-22 23:17:00,
2013-05-22 19:22:00,72.9,62.9,29.79,WSW,245,4.1,4.9,71,0.00,FEW,,0.28,WeatherDisplay:10.37,2013-05-22 23:22:00,
2013-05-22 19:27:00,73.0,63.1,29.79,West,267,0.0,0.0,71,0.00,FEW,,0.28,WeatherDisplay:10.37,2013-05-22 23:27:00,
2013-05-22 19:32:00,73.2,63.2,29.79,West,267,0.0,0.0,71,0.00,FEW,,0.28,WeatherDisplay:10.37,2013-05-22 23:32:00,
2013-05-22 19:37:00,73.2,63.2,29.79,SW,222,8.7,9.2,71,0.00,FEW,,0.28,WeatherDisplay:10.37,2013-05-22 23:37:00,
2013-05-22 19:42:00,73.4,63.4,29.79,WSW,245,0.0,2.3,71,0.00,FEW,,0.28,WeatherDisplay:10.37,2013-05-22 23:42:00,
2013-05-22 19:47:00,73.8,63.4,29.79,WSW,245,1.6,1.6,70,0.00,FEW,,0.28,WeatherDisplay:10.37,2013-05-22 23:47:00,
2013-05-22 19:52:00,73.6,63.2,29.79,West,267,0.7,1.1,70,0.00,FEW,,0.28,WeatherDisplay:10.37,2013-05-22 23:52:00,
2013-05-22 19:57:00,73.6,63.2,29.79,SW,222,2.0,2.3,70,0.00,FEW,,0.28,WeatherDisplay:10.37,2013-05-22 23:57:00,
2013-05-22 20:02:00,73.2,62.8,29.79,SW,222,0.9,2.3,70,0.00,FEW,,0.28,WeatherDisplay:10.37,2013-05-23 00:02:00,
2013-05-22 20:07:00,73.2,62.8,29.80,SSW,199,1.1,2.3,70,0.00,FEW,,0.28,WeatherDisplay:10.37,2013-05-23 00:07:00,
2013-05-22 20:12:00,73.0,62.7,29.80,West,267,1.4,2.3,70,0.00,CLR,,0.28,WeatherDisplay:10.37,2013-05-23 00:12:00,
2013-05-22 20:17:00,72.7,62.3,29.80,SSE,155,0.0,0.0,70,0.00,CLR,,0.28,WeatherDisplay:10.37,2013-05-23 00:17:00,
2013-05-22 20:22:00,72.1,61.8,29.79,SSW,199,0.0,1.1,70,0.00,CLR,,0.28,WeatherDisplay:10.37,2013-05-23 00:22:00,
2013-05-22 20:27:00,71.8,61.9,29.80,South,177,0.0,0.0,71,0.00,CLR,,0.28,WeatherDisplay:10.37,2013-05-23 00:27:00,
2013-05-22 20:32:00,71.4,61.5,29.80,SSW,199,2.2,2.3,71,0.00,CLR,,0.28,WeatherDisplay:10.37,2013-05-23 00:32:00,
2013-05-22 20:37:00,71.1,61.6,29.81,SSE,155,0.0,0.0,72,0.00,CLR,,0.28,WeatherDisplay:10.37,2013-05-23 00:37:00,
2013-05-22 20:42:00,70.5,61.1,29.81,SW,222,0.0,0.0,72,0.00,CLR,,0.28,WeatherDisplay:10.37,2013-05-23 00:42:00,
2013-05-22 20:47:00,70.2,61.1,29.81,SW,222,0.0,0.0,73,0.00,CLR,,0.28,WeatherDisplay:10.37,2013-05-23 00:47:00,
2013-05-22 20:52:00,69.4,60.8,29.81,SSW,199,0.0,0.0,74,0.00,CLR,,0.28,WeatherDisplay:10.37,2013-05-23 00:52:00,
2013-05-22 20:57:00,68.9,60.3,29.81,South,177,0.0,0.0,74,0.00,CLR,,0.28,WeatherDisplay:10.37,2013-05-23 00:57:00,
2013-05-22 21:02:00,68.5,60.3,29.81,South,177,0.0,0.0,75,0.00,CLR,,0.28,WeatherDisplay:10.37,2013-05-23 01:02:00,
2013-05-22 21:07:00,67.8,60.0,29.81,South,177,0.0,0.0,76,0.00,CLR,,0.28,WeatherDisplay:10.37,2013-05-23 01:07:00,
2013-05-22 21:12:00,67.6,59.8,29.81,South,177,0.0,0.0,76,0.00,CLR,,0.28,WeatherDisplay:10.37,2013-05-23 01:12:00,
2013-05-22 21:17:00,67.1,59.3,29.81,South,177,0.0,0.0,76,0.00,CLR,,0.28,WeatherDisplay:10.37,2013-05-23 01:17:00,
2013-05-22 21:22:00,66.7,59.3,29.81,SSE,155,0.0,0.0,77,0.00,CLR,,0.28,WeatherDisplay:10.37,2013-05-23 01:22:00,
2013-05-22 21:27:00,66.6,59.1,29.81,SSE,155,2.2,2.3,77,0.00,CLR,,0.28,WeatherDisplay:10.37,2013-05-23 01:27:00,
2013-05-22 21:32:00,66.2,59.1,29.82,SW,222,0.0,0.0,78,0.00,CLR,,0.28,WeatherDisplay:10.37,2013-05-23 01:32:00,
2013-05-22 21:37:00,65.8,59.1,29.81,South,177,0.7,1.1,79,0.00,CLR,,0.28,WeatherDisplay:10.37,2013-05-23 01:37:00,
2013-05-22 21:42:00,65.8,59.1,29.82,SE,132,0.0,1.1,79,0.00,CLR,,0.28,WeatherDisplay:10.37,2013-05-23 01:42:00,
2013-05-22 21:47:00,65.5,59.1,29.82,South,177,1.6,1.6,80,0.00,CLR,,0.28,WeatherDisplay:10.37,2013-05-23 01:47:00,
2013-05-22 21:52:00,65.3,59.0,29.81,South,177,2.9,3.5,80,0.00,CLR,,0.28,WeatherDisplay:10.37,2013-05-23 01:52:00,
2013-05-22 21:57:00,65.1,59.1,29.82,South,177,0.0,0.0,81,0.00,CLR,,0.28,WeatherDisplay:10.37,2013-05-23 01:57:00,
2013-05-22 22:02:00,65.1,59.1,29.82,SSW,199,0.0,0.0,81,0.00,CLR,,0.28,WeatherDisplay:10.37,2013-05-23 02:02:00,
2013-05-22 22:07:00,65.1,59.1,29.82,SW,222,1.6,1.6,81,0.00,CLR,,0.28,WeatherDisplay:10.37,2013-05-23 02:07:00,
2013-05-22 22:12:00,64.9,59.0,29.82,South,177,1.8,3.5,81,0.00,CLR,,0.28,WeatherDisplay:10.37,2013-05-23 02:12:00,
2013-05-22 22:17:00,64.8,58.8,29.83,SW,222,1.3,1.3,81,0.00,CLR,,0.28,WeatherDisplay:10.37,2013-05-23 02:17:00,
2013-05-22 22:22:00,64.6,58.6,29.82,SSW,199,1.9,3.8,81,0.00,CLR,,0.28,WeatherDisplay:10.37,2013-05-23 02:22:00,
2013-05-22 22:27:00,64.6,58.6,29.82,South,177,0.9,1.1,81,0.00,CLR,,0.28,WeatherDisplay:10.37,2013-05-23 02:27:00,
2013-05-22 22:32:00,64.6,58.6,29.82,SW,222,5.1,5.1,81,0.00,CLR,,0.28,WeatherDisplay:10.37,2013-05-23 02:32:00,
2013-05-22 22:37:00,64.2,58.3,29.82,SW,222,0.0,0.0,81,0.00,CLR,,0.28,WeatherDisplay:10.37,2013-05-23 02:37:00,
2013-05-22 22:42:00,64.2,58.3,29.83,South,177,0.0,0.0,81,0.00,CLR,,0.28,WeatherDisplay:10.37,2013-05-23 02:42:00,
2013-05-22 22:47:00,64.2,58.3,29.83,South,177,0.0,0.0,81,0.00,CLR,,0.28,WeatherDisplay:10.37,2013-05-23 02:47:00,
2013-05-22 22:52:00,64.0,58.1,29.83,SSW,199,0.5,1.1,81,0.00,CLR,,0.28,WeatherDisplay:10.37,2013-05-23 02:52:00,
2013-05-22 22:57:00,64.0,58.4,29.83,South,177,1.5,2.3,82,0.00,CLR,,0.28,WeatherDisplay:10.37,2013-05-23 02:57:00,
2013-05-22 23:02:00,63.7,58.1,29.83,SSE,155,0.0,0.0,82,0.00,CLR,,0.28,WeatherDisplay:10.37,2013-05-23 03:02:00,
2013-05-22 23:07:00,63.7,58.1,29.83,SSW,199,0.0,0.0,82,0.00,CLR,,0.28,WeatherDisplay:10.37,2013-05-23 03:07:00,
2013-05-22 23:12:00,63.7,58.1,29.82,SSE,155,1.1,1.1,82,0.00,CLR,,0.28,WeatherDisplay:10.37,2013-05-23 03:12:00,
2013-05-22 23:17:00,63.5,58.2,29.82,SSW,199,0.0,2.5,83,0.00,CLR,,0.28,WeatherDisplay:10.37,2013-05-23 03:17:00,
2013-05-22 23:22:00,63.3,58.1,29.82,SSW,199,0.7,1.1,83,0.00,CLR,,0.28,WeatherDisplay:10.37,2013-05-23 03:22:00,
2013-05-22 23:27:00,63.3,58.1,29.82,South,177,2.2,2.3,83,0.00,CLR,,0.28,WeatherDisplay:10.37,2013-05-23 03:27:00,
2013-05-22 23:32:00,63.3,58.1,29.83,SSW,199,0.0,1.1,83,0.00,CLR,,0.28,WeatherDisplay:10.37,2013-05-23 03:32:00,
2013-05-22 23:37:00,63.1,57.9,29.84,South,177,2.4,3.6,83,0.00,CLR,,0.28,WeatherDisplay:10.37,2013-05-23 03:37:00,
2013-05-22 23:42:00,63.1,57.9,29.83,SSW,199,1.1,1.1,83,0.00,CLR,,0.28,WeatherDisplay:10.37,2013-05-23 03:42:00,
2013-05-22 23:47:00,63.1,57.9,29.83,South,177,0.0,2.3,83,0.00,CLR,,0.28,WeatherDisplay:10.37,2013-05-23 03:47:00,
2013-05-22 23:52:00,63.0,57.7,29.83,SSE,155,0.8,1.1,83,0.00,CLR,,0.28,WeatherDisplay:10.37,2013-05-23 03:52:00,
2013-05-22 23:57:00,63.0,57.7,29.83,South,177,0.0,0.0,83,0.00,CLR,,0.28,WeatherDisplay:10.37,2013-05-23 03:57:00,